createdAt,value
2022-07-25T00:01:52.258Z,24.71
2022-07-25T00:05:55.557Z,24.68
2022-07-25T00:09:58.730Z,24.64
2022-07-25T00:14:03.696Z,24.57
2022-07-25T00:18:07.191Z,24.53
2022-07-25T00:22:10.311Z,24.42
2022-07-25T00:26:14.478Z,24.37
2022-07-25T00:30:18.956Z,24.35
2022-07-25T00:34:22.280Z,24.35
2022-07-25T00:38:25.446Z,24.34
2022-07-25T00:42:29.444Z,24.32
2022-07-25T00:46:34.111Z,24.30
2022-07-25T00:50:38.030Z,24.26
2022-07-25T00:54:41.103Z,24.21
2022-07-25T00:58:46.817Z,24.14
2022-07-25T01:02:51.533Z,24.06
2022-07-25T01:06:54.817Z,24.01
2022-07-25T01:10:57.940Z,23.95
2022-07-25T01:15:01.346Z,23.87
2022-07-25T01:19:05.810Z,23.81
2022-07-25T01:23:10.506Z,23.76
2022-07-25T01:27:17.424Z,23.71
2022-07-25T01:31:20.800Z,23.65
2022-07-25T01:35:24.444Z,23.57
2022-07-25T01:39:28.946Z,23.48
2022-07-25T01:43:32.223Z,23.42
2022-07-25T01:47:35.317Z,23.38
2022-07-25T01:51:38.431Z,23.33
2022-07-25T01:55:43.052Z,23.23
2022-07-25T01:59:46.164Z,23.18
2022-07-25T02:03:49.269Z,23.13
2022-07-25T02:07:53.572Z,23.10
2022-07-25T02:11:58.265Z,23.06
2022-07-25T02:16:01.647Z,22.94
2022-07-25T02:20:05.433Z,22.88
2022-07-25T02:24:09.457Z,22.87
2022-07-25T02:28:14.327Z,22.83
2022-07-25T02:32:17.617Z,22.80
2022-07-25T02:36:20.895Z,22.74
2022-07-25T02:40:24.312Z,22.61
2022-07-25T02:44:28.994Z,22.56
2022-07-25T02:48:32.328Z,22.49
2022-07-25T02:52:35.461Z,22.42
2022-07-25T02:56:38.548Z,22.38
2022-07-25T03:00:44.362Z,22.36
2022-07-25T03:04:47.719Z,22.34
2022-07-25T03:08:51.043Z,22.30
2022-07-25T03:12:54.705Z,22.26
2022-07-25T03:16:59.294Z,22.22
2022-07-25T03:21:02.684Z,22.17
2022-07-25T03:25:06.644Z,22.13
2022-07-25T03:29:19.313Z,22.08
2022-07-25T03:33:23.786Z,22.04
2022-07-25T03:37:27.694Z,22.01
2022-07-25T03:41:30.951Z,21.95
2022-07-25T03:45:35.066Z,21.92
2022-07-25T03:49:39.582Z,21.88
2022-07-25T03:54:00.188Z,21.86
2022-07-25T03:58:03.274Z,21.83
2022-07-25T04:02:06.463Z,21.76
2022-07-25T04:06:11.511Z,21.75
2022-07-25T04:10:14.608Z,21.72
2022-07-25T04:14:17.723Z,21.69
2022-07-25T04:18:22.299Z,21.66
2022-07-25T04:22:32.070Z,21.67
2022-07-25T04:26:35.151Z,21.63
2022-07-25T04:30:38.743Z,21.64
2022-07-25T04:34:43.745Z,21.65
2022-07-25T04:38:48.336Z,21.66
2022-07-25T04:42:51.509Z,21.62
2022-07-25T04:46:55.184Z,21.60
2022-07-25T04:50:58.327Z,21.60
2022-07-25T04:59:07.436Z,21.68
2022-07-25T05:03:10.546Z,21.71
2022-07-25T05:07:14.202Z,21.72
2022-07-25T05:11:18.714Z,21.75
2022-07-25T05:15:22.469Z,21.78
2022-07-25T05:19:26.127Z,21.85
2022-07-25T05:23:29.396Z,21.94
2022-07-25T05:27:34.103Z,22.05
2022-07-25T05:31:37.454Z,22.18
2022-07-25T05:35:41.877Z,22.31
2022-07-25T05:39:45.508Z,22.48
2022-07-25T05:43:50.194Z,22.68
2022-07-25T05:47:53.312Z,22.93
2022-07-25T05:51:56.571Z,23.20
2022-07-25T05:55:59.848Z,23.42
2022-07-25T06:00:06.282Z,23.60
2022-07-25T06:04:09.712Z,23.83
2022-07-25T06:08:13.432Z,24.06
2022-07-25T06:12:16.548Z,24.28
2022-07-25T06:16:22.074Z,24.51
2022-07-25T06:20:25.239Z,24.77
2022-07-25T06:24:28.420Z,25.04
2022-07-25T06:28:31.764Z,25.29
2022-07-25T06:32:36.235Z,25.49
2022-07-25T06:36:39.485Z,25.72
2022-07-25T06:40:42.616Z,25.90
2022-07-25T06:44:45.728Z,26.08
2022-07-25T06:48:50.965Z,26.18
2022-07-25T06:52:55.066Z,26.35
2022-07-25T06:56:58.206Z,26.59
2022-07-25T07:01:02.358Z,26.81
2022-07-25T07:05:07.850Z,27.07
2022-07-25T07:09:11.264Z,27.22
2022-07-25T07:13:23.730Z,27.38
2022-07-25T07:17:27.590Z,27.55
2022-07-25T07:21:32.198Z,27.78
2022-07-25T07:25:35.745Z,28.06
2022-07-25T07:29:39.075Z,28.24
2022-07-25T07:33:42.378Z,28.38
2022-07-25T07:37:47.875Z,28.50
2022-07-25T07:41:53.898Z,28.69
2022-07-25T07:45:59.397Z,28.87
2022-07-25T07:50:02.615Z,29.04
2022-07-25T07:54:24.736Z,29.17
2022-07-25T07:58:28.031Z,29.27
2022-07-25T08:02:31.588Z,29.50
2022-07-25T08:06:34.849Z,29.61
2022-07-25T08:10:43.113Z,29.68
2022-07-25T08:14:46.288Z,29.73
2022-07-25T08:18:49.497Z,29.95
2022-07-25T08:22:56.406Z,30.16
2022-07-25T08:27:01.483Z,30.30
2022-07-25T08:31:04.687Z,30.40
2022-07-25T08:35:11.495Z,30.48
2022-07-25T08:39:14.789Z,30.56
2022-07-25T08:43:20.551Z,30.69
2022-07-25T08:47:24.407Z,30.82
2022-07-25T08:51:28.259Z,30.91
2022-07-25T08:55:31.431Z,31.05
2022-07-25T08:59:36.158Z,31.20
2022-07-25T09:03:40.408Z,31.36
2022-07-25T09:07:43.571Z,31.44
2022-07-25T09:11:46.638Z,31.57
2022-07-25T09:15:53.776Z,31.69
2022-07-25T09:19:58.728Z,31.84
2022-07-25T09:24:09.891Z,31.98
2022-07-25T09:28:18.052Z,32.13
2022-07-25T09:32:25.407Z,32.23
2022-07-25T09:36:28.568Z,32.39
2022-07-25T09:40:32.032Z,32.50
2022-07-25T09:44:35.492Z,32.56
2022-07-25T09:48:45.342Z,32.63
2022-07-25T09:52:49.135Z,32.71
2022-07-25T09:56:53.520Z,32.92
2022-07-25T10:01:01.931Z,33.03
2022-07-25T10:05:14.547Z,33.15
2022-07-25T10:09:18.314Z,33.27
2022-07-25T10:13:31.015Z,33.36
2022-07-25T10:17:35.233Z,33.37
2022-07-25T10:21:40.027Z,33.45
2022-07-25T10:25:48.830Z,33.48
2022-07-25T10:29:55.084Z,33.60
2022-07-25T10:34:00.260Z,33.65
2022-07-25T10:38:06.615Z,33.80
2022-07-25T10:42:14.789Z,33.86
2022-07-25T10:46:22.950Z,33.97
2022-07-25T10:50:53.426Z,34.09
2022-07-25T10:54:57.936Z,34.13
2022-07-25T10:59:03.021Z,34.26
2022-07-25T11:03:06.791Z,34.35
2022-07-25T11:07:10.716Z,34.45
2022-07-25T11:11:15.374Z,34.49
2022-07-25T11:15:24.044Z,34.62
2022-07-25T11:19:30.291Z,34.71
2022-07-25T11:23:33.489Z,34.76
2022-07-25T11:27:37.947Z,34.83
2022-07-25T11:31:41.563Z,34.87
2022-07-25T11:35:45.016Z,34.93
2022-07-25T11:39:49.481Z,34.91
2022-07-25T11:43:53.982Z,34.96
2022-07-25T11:48:05.985Z,35.04
2022-07-25T11:52:20.160Z,35.14
2022-07-25T12:00:51.160Z,35.34
2022-07-25T12:04:59.337Z,35.47
2022-07-25T12:09:18.018Z,35.57
2022-07-25T12:13:26.504Z,35.67
2022-07-25T12:17:31.821Z,35.73
2022-07-25T12:21:34.911Z,35.78
2022-07-25T12:25:40.086Z,35.87
2022-07-25T12:29:43.251Z,35.94
2022-07-25T12:33:49.092Z,36.00
2022-07-25T12:37:53.016Z,36.06
2022-07-25T12:41:56.521Z,36.00
2022-07-25T12:45:59.662Z,35.99
2022-07-25T12:50:05.228Z,35.96
2022-07-25T12:54:08.767Z,35.91
2022-07-25T12:58:15.307Z,35.89
2022-07-25T13:02:18.448Z,35.92
2022-07-25T13:06:23.666Z,35.91
2022-07-25T13:10:26.904Z,35.92
2022-07-25T13:14:30.531Z,35.88
2022-07-25T13:18:33.883Z,35.88
2022-07-25T13:22:38.608Z,35.95
2022-07-25T13:26:41.978Z,36.05
2022-07-25T13:30:45.103Z,35.99
2022-07-25T13:34:48.506Z,36.03
2022-07-25T13:38:53.045Z,36.01
2022-07-25T13:42:56.151Z,35.98
2022-07-25T13:46:59.752Z,36.06
2022-07-25T13:51:03.017Z,36.09
2022-07-25T13:55:10.396Z,36.01
2022-07-25T13:59:20.362Z,35.93
2022-07-25T14:03:24.235Z,35.96
2022-07-25T14:07:27.487Z,35.99
2022-07-25T14:11:32.004Z,35.99
2022-07-25T14:15:35.398Z,35.97
2022-07-25T14:19:38.708Z,35.94
2022-07-25T14:23:42.059Z,35.93
2022-07-25T14:27:46.537Z,35.87
2022-07-25T14:31:49.774Z,35.79
2022-07-25T14:35:53.254Z,35.72
2022-07-25T14:39:56.347Z,35.68
2022-07-25T14:44:00.977Z,35.68
2022-07-25T14:48:04.187Z,35.68
2022-07-25T14:52:07.607Z,35.68
2022-07-25T14:56:11.321Z,35.68
2022-07-25T15:00:16.829Z,35.68
2022-07-25T15:04:22.147Z,35.68
2022-07-25T15:08:25.560Z,35.61
2022-07-25T15:12:28.642Z,35.54
2022-07-25T15:16:33.282Z,35.48
2022-07-25T15:20:36.652Z,35.42
2022-07-25T15:25:16.849Z,35.37
2022-07-25T15:29:03.093Z,35.38
2022-07-25T15:33:07.715Z,35.31
2022-07-25T15:37:11.820Z,35.25
2022-07-25T15:41:14.936Z,35.21
2022-07-25T15:45:36.500Z,35.15
2022-07-25T15:49:41.210Z,35.13
2022-07-25T15:53:44.368Z,35.05
2022-07-25T15:57:47.724Z,34.99
2022-07-25T16:01:50.855Z,34.93
2022-07-25T16:05:56.696Z,34.87
2022-07-25T16:09:59.991Z,34.81
2022-07-25T16:14:03.391Z,34.77
2022-07-25T16:18:07.132Z,34.72
2022-07-25T16:22:11.855Z,34.67
2022-07-25T16:26:15.232Z,34.60
2022-07-25T16:30:18.881Z,34.55
2022-07-25T16:34:27.086Z,34.49
2022-07-25T16:38:34.301Z,34.45
2022-07-25T16:42:38.028Z,34.40
2022-07-25T16:46:42.226Z,34.36
2022-07-25T16:50:45.432Z,34.29
2022-07-25T16:54:50.353Z,34.27
2022-07-25T16:58:53.925Z,34.21
2022-07-25T17:02:57.203Z,34.17
2022-07-25T17:07:00.503Z,34.10
2022-07-25T17:11:06.312Z,34.07
2022-07-25T17:15:10.752Z,34.02
2022-07-25T17:19:14.122Z,33.99
2022-07-25T17:23:17.354Z,33.95
2022-07-25T17:27:22.087Z,33.91
2022-07-25T17:31:25.488Z,33.88
2022-07-25T17:35:29.212Z,33.83
2022-07-25T17:39:33.576Z,33.75
2022-07-25T17:43:38.445Z,33.71
2022-07-25T17:47:41.884Z,33.66
2022-07-25T17:51:45.146Z,33.59
2022-07-25T17:55:48.221Z,33.52
2022-07-25T17:59:52.858Z,33.44
2022-07-25T18:03:55.939Z,33.37
2022-07-25T18:07:59.374Z,33.29
2022-07-25T18:12:02.475Z,33.21
2022-07-25T18:16:09.257Z,33.12
2022-07-25T18:20:14.054Z,33.06
2022-07-25T18:24:17.170Z,32.98
2022-07-25T18:28:20.597Z,32.89
2022-07-25T18:32:25.122Z,32.81
2022-07-25T18:36:29.707Z,32.72
2022-07-25T18:40:33.187Z,32.62
2022-07-25T18:44:36.460Z,32.56
2022-07-25T18:48:43.556Z,32.48
2022-07-25T18:52:46.809Z,32.37
2022-07-25T18:56:50.144Z,32.31
2022-07-25T19:00:53.493Z,32.23
2022-07-25T19:04:58.309Z,32.14
2022-07-25T19:09:01.689Z,32.08
2022-07-25T19:13:04.808Z,32.04
2022-07-25T19:17:07.960Z,31.96
2022-07-25T19:21:12.611Z,31.86
2022-07-25T19:25:15.949Z,31.79
2022-07-25T19:29:19.518Z,31.68
2022-07-25T19:33:22.692Z,31.62
2022-07-25T19:37:27.232Z,31.52
2022-07-25T19:41:31.575Z,31.45
2022-07-25T19:45:34.675Z,31.40
2022-07-25T19:49:39.578Z,31.33
2022-07-25T19:53:44.095Z,31.23
2022-07-25T19:57:47.279Z,31.18
2022-07-25T20:01:50.478Z,31.12
2022-07-25T20:05:53.704Z,31.09
2022-07-25T20:09:58.339Z,31.05
2022-07-25T20:14:01.903Z,30.98
2022-07-25T20:18:05.607Z,30.93
2022-07-25T20:22:08.911Z,30.84
2022-07-25T20:26:14.233Z,30.79
2022-07-25T20:30:18.085Z,30.72
2022-07-25T20:34:21.859Z,30.69
2022-07-25T20:38:28.522Z,30.64
2022-07-25T20:42:33.178Z,30.59
2022-07-25T20:46:36.769Z,30.54
2022-07-25T20:50:40.556Z,30.50
2022-07-25T20:54:43.899Z,30.47
2022-07-25T20:58:48.556Z,30.43
2022-07-25T21:02:51.917Z,30.38
2022-07-25T21:06:56.737Z,30.30
2022-07-25T21:11:00.008Z,30.25
2022-07-25T21:15:05.631Z,30.18
2022-07-25T21:19:09.150Z,30.08
2022-07-25T21:23:12.590Z,30.02
2022-07-25T21:27:15.768Z,29.96
2022-07-25T21:31:20.712Z,29.91
2022-07-25T21:35:24.119Z,29.83
2022-07-25T21:39:27.493Z,29.76
2022-07-25T21:43:31.462Z,29.67
2022-07-25T21:47:36.188Z,29.61
2022-07-25T21:51:40.933Z,29.54
2022-07-25T21:55:44.487Z,29.48
2022-07-25T21:59:47.613Z,29.41
2022-07-25T22:03:52.966Z,29.33
2022-07-25T22:07:56.411Z,29.24
2022-07-25T22:12:00.208Z,29.17
2022-07-25T22:16:03.632Z,29.11
2022-07-25T22:20:09.814Z,29.06
2022-07-25T22:24:13.403Z,28.99
2022-07-25T22:28:16.888Z,28.93
2022-07-25T22:32:20.186Z,28.85
2022-07-25T22:36:24.614Z,28.76
2022-07-25T22:40:27.679Z,28.65
2022-07-25T22:44:30.981Z,28.57
2022-07-25T22:48:34.192Z,28.49
2022-07-25T22:52:38.890Z,28.44
2022-07-25T22:56:42.228Z,28.40
2022-07-25T23:00:45.595Z,28.38
2022-07-25T23:04:49.007Z,28.34
2022-07-25T23:08:54.091Z,28.32
2022-07-25T23:12:57.125Z,28.28
2022-07-25T23:17:20.050Z,28.23
2022-07-25T23:21:23.268Z,28.18
2022-07-25T23:25:27.909Z,28.12
2022-07-25T23:29:31.027Z,28.01
2022-07-25T23:33:34.667Z,27.97
2022-07-25T23:37:37.830Z,27.94
2022-07-25T23:41:42.350Z,27.92
2022-07-25T23:45:45.619Z,27.86
2022-07-25T23:49:50.992Z,27.82
2022-07-25T23:53:54.184Z,27.73
2022-07-25T23:57:58.935Z,27.64
